createdAt,value
2022-08-09T00:02:26.827Z,2.65
2022-08-09T00:07:29.824Z,1.85
2022-08-09T00:12:46.365Z,2.63
2022-08-09T00:18:05.968Z,2.60
2022-08-09T00:23:54.768Z,2.28
2022-08-09T00:28:36.889Z,2.40
2022-08-09T00:33:50.712Z,2.63
2022-08-09T00:38:53.979Z,3.00
2022-08-09T00:44:16.958Z,2.70
2022-08-09T00:49:18.448Z,2.67
2022-08-09T00:54:31.661Z,2.58
2022-08-09T00:59:45.900Z,2.40
2022-08-09T01:05:02.467Z,2.58
2022-08-09T01:10:25.965Z,3.17
2022-08-09T01:15:40.788Z,2.88
2022-08-09T01:20:52.440Z,3.13
2022-08-09T01:31:00.227Z,2.95
2022-08-09T01:36:13.524Z,3.25
2022-08-09T01:41:18.433Z,3.33
2022-08-09T01:46:34.859Z,3.13
2022-08-09T01:51:39.202Z,3.30
2022-08-09T01:56:51.716Z,3.05
2022-08-09T02:01:59.810Z,3.20
2022-08-09T02:07:18.230Z,3.10
2022-08-09T02:12:39.204Z,3.00
2022-08-09T02:18:09.247Z,3.00
2022-08-09T02:23:11.515Z,2.97
2022-08-09T02:28:25.092Z,3.15
2022-08-09T02:33:37.987Z,3.53
2022-08-09T02:38:56.812Z,3.60
2022-08-09T02:44:07.803Z,3.50
2022-08-09T02:49:19.132Z,3.53
2022-08-09T02:54:33.039Z,3.72
2022-08-09T02:59:37.223Z,3.20
2022-08-09T03:04:40.733Z,2.88
2022-08-09T03:09:54.319Z,3.85
2022-08-09T03:14:58.933Z,3.22
2022-08-09T03:20:03.321Z,3.60
2022-08-09T03:25:56.805Z,3.42
2022-08-09T03:30:33.405Z,3.42
2022-08-09T03:36:13.715Z,4.00
2022-08-09T03:40:58.658Z,3.67
2022-08-09T03:46:04.592Z,3.72
2022-08-09T03:51:55.032Z,3.90
2022-08-09T03:56:47.757Z,3.50
2022-08-09T04:01:56.770Z,3.72
2022-08-09T04:07:01.955Z,3.55
2022-08-09T04:12:30.747Z,2.92
2022-08-09T04:17:33.632Z,3.63
2022-08-09T04:22:36.616Z,4.05
2022-08-09T04:27:46.761Z,3.90
2022-08-09T04:32:51.516Z,3.83
2022-08-09T04:37:53.556Z,3.47
2022-08-09T04:42:55.841Z,3.53
2022-08-09T04:48:02.191Z,3.67
2022-08-09T04:53:13.251Z,3.60
2022-08-09T04:58:15.877Z,3.58
2022-08-09T05:03:40.209Z,3.47
2022-08-09T05:08:44.017Z,3.60
2022-08-09T05:13:49.991Z,3.92
2022-08-09T05:18:59.357Z,3.30
2022-08-09T05:24:05.366Z,4.50
2022-08-09T05:29:07.738Z,4.53
2022-08-09T05:34:20.153Z,4.72
2022-08-09T05:39:28.268Z,5.03
2022-08-09T05:44:32.322Z,4.47
2022-08-09T05:50:24.135Z,5.03
2022-08-09T05:54:56.791Z,4.93
2022-08-09T06:00:07.919Z,4.47
2022-08-09T06:05:14.232Z,4.18
2022-08-09T06:10:18.733Z,4.60
2022-08-09T06:15:21.571Z,4.68
2022-08-09T06:20:23.596Z,4.05
2022-08-09T06:25:26.814Z,4.78
2022-08-09T06:30:29.024Z,3.65
2022-08-09T06:35:35.830Z,3.78
2022-08-09T06:40:54.948Z,4.22
2022-08-09T06:46:06.167Z,3.70
2022-08-09T06:51:13.067Z,4.30
2022-08-09T06:56:16.995Z,3.83
2022-08-09T07:01:21.394Z,3.35
2022-08-09T07:06:28.016Z,4.18
2022-08-09T07:11:45.479Z,3.53
2022-08-09T07:16:58.096Z,3.47
2022-08-09T07:22:00.723Z,3.30
2022-08-09T07:27:04.441Z,3.83
2022-08-09T07:32:13.280Z,3.42
2022-08-09T07:37:15.765Z,3.20
2022-08-09T07:42:18.390Z,3.28
2022-08-09T07:47:21.515Z,3.08
2022-08-09T07:52:25.466Z,2.78
2022-08-09T07:57:35.595Z,2.90
2022-08-09T08:02:42.606Z,2.40
2022-08-09T08:08:43.125Z,2.35
2022-08-09T08:13:07.109Z,2.20
2022-08-09T08:18:14.495Z,2.28
2022-08-09T08:23:18.679Z,1.90
2022-08-09T08:28:32.001Z,1.80
2022-08-09T08:33:52.527Z,1.73
2022-08-09T08:38:58.714Z,1.50
2022-08-09T08:44:03.562Z,1.70
2022-08-09T08:49:07.587Z,1.30
2022-08-09T08:54:20.331Z,1.25
2022-08-09T08:59:46.899Z,1.15
2022-08-09T09:04:53.388Z,1.15
2022-08-09T09:10:01.963Z,0.80
2022-08-09T09:15:07.412Z,1.00
2022-08-09T09:20:15.261Z,1.00
2022-08-09T09:26:04.937Z,1.05
2022-08-09T09:30:57.726Z,1.10
2022-08-09T09:36:11.710Z,1.05
2022-08-09T09:41:22.665Z,1.20
2022-08-09T09:46:42.837Z,1.05
2022-08-09T09:51:51.405Z,0.95
2022-08-09T09:58:03.554Z,1.02
2022-08-09T10:02:18.578Z,0.80
2022-08-09T10:07:27.428Z,0.90
2022-08-09T10:12:35.648Z,0.80
2022-08-09T10:17:55.809Z,0.60
2022-08-09T10:23:12.317Z,0.80
2022-08-09T10:28:16.014Z,0.70
2022-08-09T10:33:29.820Z,0.60
2022-08-09T10:38:56.051Z,0.70
2022-08-09T10:44:03.881Z,0.90
2022-08-09T10:49:46.892Z,0.70
2022-08-09T10:54:50.074Z,0.73
2022-08-09T10:59:58.368Z,0.63
2022-08-09T11:05:25.005Z,0.55
2022-08-09T11:10:47.115Z,0.63
2022-08-09T11:16:35.742Z,0.70
2022-08-09T11:21:55.010Z,0.70
2022-08-09T11:27:00.553Z,0.75
2022-08-09T11:32:10.463Z,0.70
2022-08-09T11:37:26.353Z,0.57
2022-08-09T11:42:48.746Z,0.50
2022-08-09T11:47:57.913Z,0.50
2022-08-09T11:53:20.904Z,0.45
2022-08-09T11:58:33.042Z,0.50
2022-08-09T12:03:57.427Z,0.60
2022-08-09T12:09:01.215Z,0.40
2022-08-09T12:14:37.155Z,0.40
2022-08-09T12:19:31.053Z,0.47
2022-08-09T12:24:33.546Z,0.55
2022-08-09T12:29:44.739Z,0.45
2022-08-09T12:35:05.455Z,0.60
2022-08-09T12:40:17.916Z,0.50
2022-08-09T12:45:35.044Z,0.65
2022-08-09T12:50:41.723Z,0.57
2022-08-09T12:56:13.963Z,0.75
2022-08-09T13:01:22.989Z,0.40
2022-08-09T13:06:48.723Z,0.50
2022-08-09T13:12:02.068Z,0.50
2022-08-09T13:17:16.002Z,0.60
2022-08-09T13:23:00.688Z,0.47
2022-08-09T13:27:55.651Z,0.50
2022-08-09T13:32:58.559Z,0.50
2022-08-09T13:38:02.503Z,0.30
2022-08-09T13:43:09.515Z,0.50
2022-08-09T13:48:12.329Z,0.40
2022-08-09T13:53:16.877Z,0.55
2022-08-09T13:58:21.211Z,0.57
2022-08-09T14:04:03.295Z,0.50
2022-08-09T14:08:46.116Z,0.57
2022-08-09T14:14:23.422Z,0.50
2022-08-09T14:19:11.117Z,0.45
2022-08-09T14:24:22.368Z,0.47
2022-08-09T14:30:35.287Z,0.40
2022-08-09T14:34:57.041Z,0.57
2022-08-09T14:39:59.180Z,0.40
2022-08-09T14:46:54.106Z,0.38
2022-08-09T14:50:31.666Z,0.50
2022-08-09T14:55:35.145Z,0.50
2022-08-09T15:00:37.435Z,0.50
2022-08-09T15:05:49.527Z,0.28
2022-08-09T15:11:00.329Z,0.43
2022-08-09T15:16:07.897Z,0.40
2022-08-09T15:22:01.247Z,0.50
2022-08-09T15:26:32.216Z,0.52
2022-08-09T15:31:42.026Z,0.40
2022-08-09T15:36:48.288Z,0.40
2022-08-09T15:41:54.549Z,0.40
2022-08-09T15:46:56.704Z,0.57
2022-08-09T15:52:04.051Z,0.50
2022-08-09T15:57:08.618Z,0.60
2022-08-09T16:02:13.296Z,0.35
2022-08-09T16:07:16.677Z,0.40
2022-08-09T16:12:19.271Z,0.43
2022-08-09T16:17:22.017Z,0.43
2022-08-09T16:22:25.404Z,0.40
2022-08-09T16:27:32.037Z,0.35
2022-08-09T16:32:57.241Z,0.60
2022-08-09T16:38:00.433Z,0.40
2022-08-09T16:43:04.285Z,0.45
2022-08-09T16:48:39.806Z,0.43
2022-08-09T16:53:32.426Z,0.47
2022-08-09T16:58:39.735Z,0.40
2022-08-09T17:03:47.308Z,0.40
2022-08-09T17:09:00.048Z,0.50
2022-08-09T17:14:26.577Z,0.47
2022-08-09T17:19:47.572Z,0.50
2022-08-09T17:24:55.771Z,0.50
2022-08-09T17:30:07.172Z,0.70
2022-08-09T17:40:18.401Z,0.50
2022-08-09T17:45:27.601Z,0.43
2022-08-09T17:50:48.478Z,0.50
2022-08-09T17:56:03.282Z,0.63
2022-08-09T18:01:10.733Z,0.60
2022-08-09T18:06:31.886Z,0.43
2022-08-09T18:11:47.032Z,0.45
2022-08-09T18:17:06.422Z,0.57
2022-08-09T18:22:17.154Z,0.65
2022-08-09T18:27:49.125Z,0.90
2022-08-09T18:32:41.898Z,0.70
2022-08-09T18:37:47.670Z,0.63
2022-08-09T18:42:51.306Z,1.00
2022-08-09T18:47:53.450Z,0.90
2022-08-09T18:52:56.743Z,0.80
2022-08-09T18:58:01.530Z,1.02
2022-08-09T19:03:03.795Z,1.02
2022-08-09T19:08:10.756Z,0.70
2022-08-09T19:13:38.538Z,0.70
2022-08-09T19:18:48.610Z,0.70
2022-08-09T19:24:39.447Z,0.70
2022-08-09T19:29:20.708Z,0.73
2022-08-09T19:34:26.329Z,0.70
2022-08-09T19:40:03.705Z,0.90
2022-08-09T19:44:51.767Z,0.80
2022-08-09T19:50:09.279Z,0.70
2022-08-09T19:56:03.286Z,1.17
2022-08-09T20:00:53.792Z,1.00
2022-08-09T20:05:58.903Z,1.00
2022-08-09T20:11:05.628Z,1.05
2022-08-09T20:16:34.222Z,0.90
2022-08-09T20:21:40.699Z,0.80
2022-08-09T20:26:54.848Z,1.10
2022-08-09T20:32:31.224Z,1.20
2022-08-09T20:37:22.596Z,1.30
2022-08-09T20:42:24.875Z,1.23
2022-08-09T20:47:48.271Z,1.17
2022-08-09T20:52:49.124Z,1.10
2022-08-09T20:58:08.471Z,0.90
2022-08-09T21:03:16.831Z,1.10
2022-08-09T21:08:36.206Z,1.15
2022-08-09T21:13:45.828Z,0.98
2022-08-09T21:20:04.318Z,1.00
2022-08-09T21:24:28.609Z,1.25
2022-08-09T21:29:49.672Z,1.00
2022-08-09T21:34:54.193Z,1.42
2022-08-09T21:39:56.303Z,1.00
2022-08-09T21:44:58.432Z,1.00
2022-08-09T21:50:00.820Z,1.08
2022-08-09T21:55:05.943Z,0.80
2022-08-09T22:00:16.487Z,1.13
2022-08-09T22:05:23.146Z,0.98
2022-08-09T22:10:25.737Z,1.02
2022-08-09T22:15:35.083Z,0.90
2022-08-09T22:20:40.149Z,1.27
2022-08-09T22:26:06.491Z,1.10
2022-08-09T22:31:05.967Z,1.30
2022-08-09T22:36:09.114Z,1.00
2022-08-09T22:41:11.449Z,0.90
2022-08-09T22:48:17.100Z,1.20
2022-08-09T22:51:38.572Z,1.00
2022-08-09T22:56:42.062Z,1.08
2022-08-09T23:01:44.176Z,0.82
2022-08-09T23:07:11.354Z,0.93
2022-08-09T23:12:16.166Z,0.98
2022-08-09T23:17:18.211Z,1.00
2022-08-09T23:22:20.254Z,0.93
2022-08-09T23:27:22.469Z,0.77
2022-08-09T23:32:24.613Z,0.70
2022-08-09T23:37:26.747Z,1.10
2022-08-09T23:42:28.897Z,1.10
2022-08-09T23:47:31.034Z,1.00
2022-08-09T23:52:33.207Z,1.10
2022-08-09T23:57:41.612Z,1.10
